sensor_id;sensor_type;location;lat;lon;timestamp;temperature;humidity
1594;DHT22;790;47.000;16.084;2023-03-14T00:01:10;10.80;99.90
1594;DHT22;790;47.000;16.084;2023-03-14T00:03:39;10.80;99.90
1594;DHT22;790;47.000;16.084;2023-03-14T00:06:07;10.70;99.90
1594;DHT22;790;47.000;16.084;2023-03-14T00:08:35;10.70;99.90
1594;DHT22;790;47.000;16.084;2023-03-14T00:11:06;10.80;99.90
1594;DHT22;790;47.000;16.084;2023-03-14T00:13:35;10.80;99.90
1594;DHT22;790;47.000;16.084;2023-03-14T00:16:04;10.80;99.90
1594;DHT22;790;47.000;16.084;2023-03-14T00:18:32;10.90;99.90
1594;DHT22;790;47.000;16.084;2023-03-14T00:21:00;10.80;99.90
1594;DHT22;790;47.000;16.084;2023-03-14T00:23:28;10.80;99.90
1594;DHT22;790;47.000;16.084;2023-03-14T00:25:59;10.70;99.90
1594;DHT22;790;47.000;16.084;2023-03-14T00:28:26;10.70;99.90
1594;DHT22;790;47.000;16.084;2023-03-14T00:30:55;10.70;99.90
1594;DHT22;790;47.000;16.084;2023-03-14T00:33:23;10.80;99.90
1594;DHT22;790;47.000;16.084;2023-03-14T00:35:54;10.80;99.90
1594;DHT22;790;47.000;16.084;2023-03-14T00:38:22;10.90;99.90
1594;DHT22;790;47.000;16.084;2023-03-14T00:40:50;11.00;99.90
1594;DHT22;790;47.000;16.084;2023-03-14T00:43:17;11.00;99.90
1594;DHT22;790;47.000;16.084;2023-03-14T00:45:44;11.10;99.90
1594;DHT22;790;47.000;16.084;2023-03-14T00:48:13;11.20;99.90
1594;DHT22;790;47.000;16.084;2023-03-14T00:50:41;11.40;99.90
1594;DHT22;790;47.000;16.084;2023-03-14T00:53:08;11.40;99.90
1594;DHT22;790;47.000;16.084;2023-03-14T00:55:38;11.50;99.90
1594;DHT22;790;47.000;16.084;2023-03-14T00:58:05;11.60;99.90
1594;DHT22;790;47.000;16.084;2023-03-14T01:00:33;11.60;99.90
1594;DHT22;790;47.000;16.084;2023-03-14T01:03:00;11.60;99.90
1594;DHT22;790;47.000;16.084;2023-03-14T01:05:29;11.70;99.90
1594;DHT22;790;47.000;16.084;2023-03-14T01:07:56;11.70;99.90
1594;DHT22;790;47.000;16.084;2023-03-14T01:10:24;11.70;99.90
1594;DHT22;790;47.000;16.084;2023-03-14T01:12:51;11.80;99.90
1594;DHT22;790;47.000;16.084;2023-03-14T01:15:19;11.80;99.90
1594;DHT22;790;47.000;16.084;2023-03-14T01:17:46;11.90;99.90
1594;DHT22;790;47.000;16.084;2023-03-14T01:20:15;11.90;99.90
1594;DHT22;790;47.000;16.084;2023-03-14T01:22:43;11.90;99.90
1594;DHT22;790;47.000;16.084;2023-03-14T01:25:13;11.90;99.90
1594;DHT22;790;47.000;16.084;2023-03-14T01:27:41;12.10;99.90
1594;DHT22;790;47.000;16.084;2023-03-14T01:30:10;12.10;99.90
1594;DHT22;790;47.000;16.084;2023-03-14T01:32:38;12.10;99.90
1594;DHT22;790;47.000;16.084;2023-03-14T01:35:06;12.10;99.90
1594;DHT22;790;47.000;16.084;2023-03-14T01:37:33;12.10;99.90
1594;DHT22;790;47.000;16.084;2023-03-14T01:40:03;12.10;99.90
1594;DHT22;790;47.000;16.084;2023-03-14T01:42:31;12.10;99.90
1594;DHT22;790;47.000;16.084;2023-03-14T01:45:00;12.10;99.90
1594;DHT22;790;47.000;16.084;2023-03-14T01:47:28;12.20;99.90
1594;DHT22;790;47.000;16.084;2023-03-14T01:49:59;12.20;99.90
1594;DHT22;790;47.000;16.084;2023-03-14T01:52:29;12.30;99.90
1594;DHT22;790;47.000;16.084;2023-03-14T01:55:04;12.30;99.90
1594;DHT22;790;47.000;16.084;2023-03-14T01:57:34;12.20;99.90
1594;DHT22;790;47.000;16.084;2023-03-14T02:00:06;12.30;99.90
1594;DHT22;790;47.000;16.084;2023-03-14T02:02:38;12.30;99.90
1594;DHT22;790;47.000;16.084;2023-03-14T02:05:06;12.40;99.90
1594;DHT22;790;47.000;16.084;2023-03-14T02:07:38;12.50;99.90
1594;DHT22;790;47.000;16.084;2023-03-14T02:10:10;12.50;99.90
1594;DHT22;790;47.000;16.084;2023-03-14T02:12:37;12.50;99.90
1594;DHT22;790;47.000;16.084;2023-03-14T02:15:06;12.50;99.90
1594;DHT22;790;47.000;16.084;2023-03-14T02:17:34;12.40;99.90
1594;DHT22;790;47.000;16.084;2023-03-14T02:20:13;12.40;99.90
1594;DHT22;790;47.000;16.084;2023-03-14T02:22:44;12.50;99.90
1594;DHT22;790;47.000;16.084;2023-03-14T02:25:17;12.50;99.90
1594;DHT22;790;47.000;16.084;2023-03-14T02:27:48;12.50;99.90
1594;DHT22;790;47.000;16.084;2023-03-14T02:30:17;12.50;99.90
1594;DHT22;790;47.000;16.084;2023-03-14T02:32:46;12.40;99.90
1594;DHT22;790;47.000;16.084;2023-03-14T02:35:17;12.40;99.90
1594;DHT22;790;47.000;16.084;2023-03-14T02:37:49;12.40;99.90
1594;DHT22;790;47.000;16.084;2023-03-14T02:40:18;12.40;99.90
1594;DHT22;790;47.000;16.084;2023-03-14T02:42:47;12.40;99.90
1594;DHT22;790;47.000;16.084;2023-03-14T02:45:39;12.50;99.90
1594;DHT22;790;47.000;16.084;2023-03-14T02:48:11;12.50;99.90
1594;DHT22;790;47.000;16.084;2023-03-14T02:50:40;12.50;99.90
1594;DHT22;790;47.000;16.084;2023-03-14T02:53:08;12.50;99.90
1594;DHT22;790;47.000;16.084;2023-03-14T02:55:35;12.50;99.90
1594;DHT22;790;47.000;16.084;2023-03-14T02:58:04;12.40;99.90
1594;DHT22;790;47.000;16.084;2023-03-14T03:00:31;12.50;99.90
1594;DHT22;790;47.000;16.084;2023-03-14T03:02:59;12.50;99.90
1594;DHT22;790;47.000;16.084;2023-03-14T03:05:27;12.50;99.90
1594;DHT22;790;47.000;16.084;2023-03-14T03:07:54;12.50;99.90
1594;DHT22;790;47.000;16.084;2023-03-14T03:10:22;12.60;99.90
1594;DHT22;790;47.000;16.084;2023-03-14T03:12:50;12.60;99.90
1594;DHT22;790;47.000;16.084;2023-03-14T03:15:19;12.70;99.90
1594;DHT22;790;47.000;16.084;2023-03-14T03:17:46;12.60;99.90
1594;DHT22;790;47.000;16.084;2023-03-14T03:20:13;12.70;99.90
1594;DHT22;790;47.000;16.084;2023-03-14T03:22:40;12.80;99.90
1594;DHT22;790;47.000;16.084;2023-03-14T03:25:08;12.70;99.90
1594;DHT22;790;47.000;16.084;2023-03-14T03:27:37;12.70;99.90
1594;DHT22;790;47.000;16.084;2023-03-14T03:30:05;12.80;99.90
1594;DHT22;790;47.000;16.084;2023-03-14T03:32:34;12.80;99.90
1594;DHT22;790;47.000;16.084;2023-03-14T03:35:01;12.80;99.90
1594;DHT22;790;47.000;16.084;2023-03-14T03:37:30;12.80;99.90
1594;DHT22;790;47.000;16.084;2023-03-14T03:39:57;12.80;99.90
1594;DHT22;790;47.000;16.084;2023-03-14T03:42:25;12.80;99.90
1594;DHT22;790;47.000;16.084;2023-03-14T03:44:53;12.80;99.90
1594;DHT22;790;47.000;16.084;2023-03-14T03:47:20;12.70;99.90
1594;DHT22;790;47.000;16.084;2023-03-14T03:49:49;12.70;99.90
1594;DHT22;790;47.000;16.084;2023-03-14T03:52:16;12.70;99.90
1594;DHT22;790;47.000;16.084;2023-03-14T03:54:44;12.70;99.90
1594;DHT22;790;47.000;16.084;2023-03-14T03:57:11;12.70;99.90
1594;DHT22;790;47.000;16.084;2023-03-14T03:59:38;12.70;99.90
1594;DHT22;790;47.000;16.084;2023-03-14T04:02:06;12.60;99.90
1594;DHT22;790;47.000;16.084;2023-03-14T04:04:33;12.70;99.90
1594;DHT22;790;47.000;16.084;2023-03-14T04:07:02;12.60;99.90
1594;DHT22;790;47.000;16.084;2023-03-14T04:09:30;12.60;99.90
1594;DHT22;790;47.000;16.084;2023-03-14T04:11:57;12.60;99.90
1594;DHT22;790;47.000;16.084;2023-03-14T04:14:24;12.60;99.90
1594;DHT22;790;47.000;16.084;2023-03-14T04:16:52;12.70;99.90
1594;DHT22;790;47.000;16.084;2023-03-14T04:19:19;12.70;99.90
1594;DHT22;790;47.000;16.084;2023-03-14T04:21:46;12.70;99.90
1594;DHT22;790;47.000;16.084;2023-03-14T04:24:15;12.80;99.90
1594;DHT22;790;47.000;16.084;2023-03-14T04:26:42;12.80;99.90
1594;DHT22;790;47.000;16.084;2023-03-14T04:29:09;12.70;99.90
1594;DHT22;790;47.000;16.084;2023-03-14T04:31:37;12.70;99.90
1594;DHT22;790;47.000;16.084;2023-03-14T04:34:04;12.60;99.90
1594;DHT22;790;47.000;16.084;2023-03-14T04:36:31;12.60;99.90
1594;DHT22;790;47.000;16.084;2023-03-14T04:38:58;12.60;99.90
1594;DHT22;790;47.000;16.084;2023-03-14T04:41:27;12.60;99.90
1594;DHT22;790;47.000;16.084;2023-03-14T04:43:54;12.60;99.90
1594;DHT22;790;47.000;16.084;2023-03-14T04:46:21;12.60;99.90
1594;DHT22;790;47.000;16.084;2023-03-14T04:48:48;12.60;99.90
1594;DHT22;790;47.000;16.084;2023-03-14T04:51:16;12.60;99.90
1594;DHT22;790;47.000;16.084;2023-03-14T04:53:43;12.60;99.90
1594;DHT22;790;47.000;16.084;2023-03-14T04:56:10;12.60;99.90
1594;DHT22;790;47.000;16.084;2023-03-14T04:58:40;12.60;99.90
1594;DHT22;790;47.000;16.084;2023-03-14T05:01:07;12.60;99.90
1594;DHT22;790;47.000;16.084;2023-03-14T05:03:34;12.60;99.90
1594;DHT22;790;47.000;16.084;2023-03-14T05:06:04;12.60;99.90
1594;DHT22;790;47.000;16.084;2023-03-14T05:08:31;12.60;99.90
1594;DHT22;790;47.000;16.084;2023-03-14T05:10:59;12.60;99.90
1594;DHT22;790;47.000;16.084;2023-03-14T05:13:26;12.60;99.90
1594;DHT22;790;47.000;16.084;2023-03-14T05:16:03;12.60;99.90
1594;DHT22;790;47.000;16.084;2023-03-14T05:18:30;12.60;99.90
1594;DHT22;790;47.000;16.084;2023-03-14T05:20:58;12.60;99.90
1594;DHT22;790;47.000;16.084;2023-03-14T05:23:25;12.60;99.90
1594;DHT22;790;47.000;16.084;2023-03-14T05:25:52;12.70;99.90
1594;DHT22;790;47.000;16.084;2023-03-14T05:28:19;12.60;99.90
1594;DHT22;790;47.000;16.084;2023-03-14T05:30:47;12.60;99.90
1594;DHT22;790;47.000;16.084;2023-03-14T05:33:15;12.70;99.90
1594;DHT22;790;47.000;16.084;2023-03-14T05:35:43;12.70;99.90
1594;DHT22;790;47.000;16.084;2023-03-14T05:38:10;12.80;99.90
1594;DHT22;790;47.000;16.084;2023-03-14T05:40:37;12.70;99.90
1594;DHT22;790;47.000;16.084;2023-03-14T05:43:04;12.70;99.90
1594;DHT22;790;47.000;16.084;2023-03-14T05:45:33;12.70;99.90
1594;DHT22;790;47.000;16.084;2023-03-14T05:48:01;12.80;99.90
1594;DHT22;790;47.000;16.084;2023-03-14T05:50:30;12.70;99.90
1594;DHT22;790;47.000;16.084;2023-03-14T05:52:57;12.70;99.90
1594;DHT22;790;47.000;16.084;2023-03-14T05:55:24;12.70;99.90
1594;DHT22;790;47.000;16.084;2023-03-14T05:57:52;12.70;99.90
1594;DHT22;790;47.000;16.084;2023-03-14T06:00:20;12.80;99.90
1594;DHT22;790;47.000;16.084;2023-03-14T06:02:48;12.80;99.90
1594;DHT22;790;47.000;16.084;2023-03-14T06:05:15;12.80;99.90
1594;DHT22;790;47.000;16.084;2023-03-14T06:07:44;12.70;99.90
1594;DHT22;790;47.000;16.084;2023-03-14T06:10:11;12.80;99.90
1594;DHT22;790;47.000;16.084;2023-03-14T06:12:38;12.80;99.90
1594;DHT22;790;47.000;16.084;2023-03-14T06:15:06;12.80;99.90
1594;DHT22;790;47.000;16.084;2023-03-14T06:17:34;12.80;99.90
1594;DHT22;790;47.000;16.084;2023-03-14T06:20:01;12.90;99.90
1594;DHT22;790;47.000;16.084;2023-03-14T06:22:28;12.90;99.90
1594;DHT22;790;47.000;16.084;2023-03-14T06:27:57;12.90;99.90
1594;DHT22;790;47.000;16.084;2023-03-14T06:30:29;13.00;99.90
1594;DHT22;790;47.000;16.084;2023-03-14T06:33:27;13.00;99.90
1594;DHT22;790;47.000;16.084;2023-03-14T06:36:09;12.90;99.90
1594;DHT22;790;47.000;16.084;2023-03-14T06:38:37;13.00;99.90
1594;DHT22;790;47.000;16.084;2023-03-14T06:41:08;13.00;99.90
1594;DHT22;790;47.000;16.084;2023-03-14T06:43:49;13.00;99.90
1594;DHT22;790;47.000;16.084;2023-03-14T06:46:25;13.10;99.90
1594;DHT22;790;47.000;16.084;2023-03-14T06:49:06;13.10;99.90
1594;DHT22;790;47.000;16.084;2023-03-14T06:51:50;13.20;99.90
1594;DHT22;790;47.000;16.084;2023-03-14T06:54:27;13.10;99.90
1594;DHT22;790;47.000;16.084;2023-03-14T06:57:20;13.20;99.90
1594;DHT22;790;47.000;16.084;2023-03-14T06:59:52;13.30;99.90
1594;DHT22;790;47.000;16.084;2023-03-14T07:02:31;13.30;99.90
1594;DHT22;790;47.000;16.084;2023-03-14T07:05:03;13.40;99.90
1594;DHT22;790;47.000;16.084;2023-03-14T07:07:38;13.40;99.90
1594;DHT22;790;47.000;16.084;2023-03-14T07:10:09;13.40;99.90
1594;DHT22;790;47.000;16.084;2023-03-14T07:12:38;13.40;99.90
1594;DHT22;790;47.000;16.084;2023-03-14T07:15:43;13.40;99.90
1594;DHT22;790;47.000;16.084;2023-03-14T07:18:20;13.40;99.90
1594;DHT22;790;47.000;16.084;2023-03-14T07:20:51;13.40;99.90
1594;DHT22;790;47.000;16.084;2023-03-14T07:23:26;13.30;99.90
1594;DHT22;790;47.000;16.084;2023-03-14T07:25:57;13.40;99.90
1594;DHT22;790;47.000;16.084;2023-03-14T07:28:42;13.50;99.90
1594;DHT22;790;47.000;16.084;2023-03-14T07:31:43;13.60;99.90
1594;DHT22;790;47.000;16.084;2023-03-14T07:34:17;13.70;99.90
1594;DHT22;790;47.000;16.084;2023-03-14T07:36:47;13.70;99.90
1594;DHT22;790;47.000;16.084;2023-03-14T07:39:23;13.80;99.90
1594;DHT22;790;47.000;16.084;2023-03-14T07:41:56;13.90;99.90
1594;DHT22;790;47.000;16.084;2023-03-14T07:44:33;13.90;99.90
1594;DHT22;790;47.000;16.084;2023-03-14T07:47:03;14.00;99.90
1594;DHT22;790;47.000;16.084;2023-03-14T07:49:43;14.10;99.90
1594;DHT22;790;47.000;16.084;2023-03-14T07:52:33;14.20;99.90
1594;DHT22;790;47.000;16.084;2023-03-14T07:55:23;14.30;99.90
1594;DHT22;790;47.000;16.084;2023-03-14T07:58:11;14.50;99.90
1594;DHT22;790;47.000;16.084;2023-03-14T08:00:58;14.60;99.90
1594;DHT22;790;47.000;16.084;2023-03-14T08:03:32;14.70;99.90
1594;DHT22;790;47.000;16.084;2023-03-14T08:06:08;14.80;99.90
1594;DHT22;790;47.000;16.084;2023-03-14T08:08:52;14.90;99.90
1594;DHT22;790;47.000;16.084;2023-03-14T08:12:02;14.90;99.90
1594;DHT22;790;47.000;16.084;2023-03-14T08:14:31;15.00;99.90
1594;DHT22;790;47.000;16.084;2023-03-14T08:17:14;15.00;99.90
1594;DHT22;790;47.000;16.084;2023-03-14T08:19:52;15.10;99.90
1594;DHT22;790;47.000;16.084;2023-03-14T08:22:30;15.10;99.90
1594;DHT22;790;47.000;16.084;2023-03-14T08:25:30;15.10;99.90
1594;DHT22;790;47.000;16.084;2023-03-14T08:28:06;15.20;99.90
1594;DHT22;790;47.000;16.084;2023-03-14T08:30:40;15.20;99.90
1594;DHT22;790;47.000;16.084;2023-03-14T08:33:19;15.20;99.90
1594;DHT22;790;47.000;16.084;2023-03-14T08:36:00;15.30;99.90
1594;DHT22;790;47.000;16.084;2023-03-14T08:38:28;15.30;99.90
1594;DHT22;790;47.000;16.084;2023-03-14T08:41:02;15.40;99.90
1594;DHT22;790;47.000;16.084;2023-03-14T08:43:40;15.50;99.90
1594;DHT22;790;47.000;16.084;2023-03-14T08:46:27;15.50;99.90
1594;DHT22;790;47.000;16.084;2023-03-14T08:48:56;15.60;99.90
1594;DHT22;790;47.000;16.084;2023-03-14T08:51:42;15.70;99.90
1594;DHT22;790;47.000;16.084;2023-03-14T08:54:25;15.60;99.90
1594;DHT22;790;47.000;16.084;2023-03-14T08:57:01;15.60;99.90
1594;DHT22;790;47.000;16.084;2023-03-14T08:59:31;15.70;99.90
1594;DHT22;790;47.000;16.084;2023-03-14T09:02:01;15.70;99.90
1594;DHT22;790;47.000;16.084;2023-03-14T09:05:03;15.70;99.90
1594;DHT22;790;47.000;16.084;2023-03-14T09:14:17;15.80;99.90
1594;DHT22;790;47.000;16.084;2023-03-14T09:20:07;15.80;99.90
1594;DHT22;790;47.000;16.084;2023-03-14T09:22:55;15.80;99.90
1594;DHT22;790;47.000;16.084;2023-03-14T09:25:29;15.80;99.90
1594;DHT22;790;47.000;16.084;2023-03-14T09:28:02;15.80;99.90
1594;DHT22;790;47.000;16.084;2023-03-14T09:30:56;15.90;99.90
1594;DHT22;790;47.000;16.084;2023-03-14T09:33:25;15.90;99.90
1594;DHT22;790;47.000;16.084;2023-03-14T09:35:58;16.00;99.90
1594;DHT22;790;47.000;16.084;2023-03-14T09:38:46;16.10;99.90
1594;DHT22;790;47.000;16.084;2023-03-14T09:41:33;16.30;99.90
1594;DHT22;790;47.000;16.084;2023-03-14T09:44:20;16.50;99.90
1594;DHT22;790;47.000;16.084;2023-03-14T09:47:01;16.60;99.90
1594;DHT22;790;47.000;16.084;2023-03-14T09:49:48;16.70;99.90
1594;DHT22;790;47.000;16.084;2023-03-14T09:52:35;16.80;99.90
1594;DHT22;790;47.000;16.084;2023-03-14T09:55:19;16.90;99.90
1594;DHT22;790;47.000;16.084;2023-03-14T09:58:08;16.90;99.90
1594;DHT22;790;47.000;16.084;2023-03-14T10:00:38;16.90;99.90
1594;DHT22;790;47.000;16.084;2023-03-14T10:03:37;16.90;99.90
1594;DHT22;790;47.000;16.084;2023-03-14T10:06:11;16.90;99.90
1594;DHT22;790;47.000;16.084;2023-03-14T10:08:45;16.90;99.90
1594;DHT22;790;47.000;16.084;2023-03-14T10:11:16;16.90;99.90
1594;DHT22;790;47.000;16.084;2023-03-14T10:14:08;16.80;99.90
1594;DHT22;790;47.000;16.084;2023-03-14T10:16:54;16.60;99.90
1594;DHT22;790;47.000;16.084;2023-03-14T10:19:52;16.50;99.90
1594;DHT22;790;47.000;16.084;2023-03-14T10:22:29;16.50;99.90
1594;DHT22;790;47.000;16.084;2023-03-14T10:25:02;16.50;99.90
1594;DHT22;790;47.000;16.084;2023-03-14T10:27:39;16.50;99.90
1594;DHT22;790;47.000;16.084;2023-03-14T10:30:33;16.60;99.90
1594;DHT22;790;47.000;16.084;2023-03-14T10:33:37;16.60;99.90
1594;DHT22;790;47.000;16.084;2023-03-14T10:36:19;16.70;99.90
1594;DHT22;790;47.000;16.084;2023-03-14T10:39:28;16.80;99.90
1594;DHT22;790;47.000;16.084;2023-03-14T10:42:12;16.80;99.90
1594;DHT22;790;47.000;16.084;2023-03-14T10:44:44;16.80;99.90
1594;DHT22;790;47.000;16.084;2023-03-14T10:47:18;16.90;99.90
1594;DHT22;790;47.000;16.084;2023-03-14T10:49:56;16.90;99.90
1594;DHT22;790;47.000;16.084;2023-03-14T10:52:49;16.90;99.90
1594;DHT22;790;47.000;16.084;2023-03-14T10:55:40;16.90;99.90
1594;DHT22;790;47.000;16.084;2023-03-14T10:58:23;16.90;99.90
1594;DHT22;790;47.000;16.084;2023-03-14T11:01:14;17.00;99.90
1594;DHT22;790;47.000;16.084;2023-03-14T11:07:21;17.30;99.90
1594;DHT22;790;47.000;16.084;2023-03-14T11:09:56;17.50;99.90
1594;DHT22;790;47.000;16.084;2023-03-14T11:12:38;17.70;99.90
1594;DHT22;790;47.000;16.084;2023-03-14T11:15:14;17.80;99.90
1594;DHT22;790;47.000;16.084;2023-03-14T11:20:59;18.00;99.90
1594;DHT22;790;47.000;16.084;2023-03-14T11:23:42;18.00;99.10
1594;DHT22;790;47.000;16.084;2023-03-14T11:26:24;18.00;98.70
1594;DHT22;790;47.000;16.084;2023-03-14T11:29:07;18.00;99.20
1594;DHT22;790;47.000;16.084;2023-03-14T11:31:40;18.00;97.60
1594;DHT22;790;47.000;16.084;2023-03-14T11:34:16;18.00;96.70
1594;DHT22;790;47.000;16.084;2023-03-14T11:36:51;17.90;97.10
1594;DHT22;790;47.000;16.084;2023-03-14T11:39:20;17.90;96.00
1594;DHT22;790;47.000;16.084;2023-03-14T11:41:51;17.90;95.80
1594;DHT22;790;47.000;16.084;2023-03-14T11:44:23;17.90;95.40
1594;DHT22;790;47.000;16.084;2023-03-14T11:46:53;17.80;97.30
1594;DHT22;790;47.000;16.084;2023-03-14T11:49:30;17.70;99.00
1594;DHT22;790;47.000;16.084;2023-03-14T11:52:02;17.70;99.50
1594;DHT22;790;47.000;16.084;2023-03-14T11:54:35;17.70;99.90
1594;DHT22;790;47.000;16.084;2023-03-14T11:57:14;17.60;99.90
1594;DHT22;790;47.000;16.084;2023-03-14T11:59:50;17.50;99.90
1594;DHT22;790;47.000;16.084;2023-03-14T12:02:24;17.50;99.90
1594;DHT22;790;47.000;16.084;2023-03-14T12:05:20;17.40;99.90
1594;DHT22;790;47.000;16.084;2023-03-14T12:08:17;17.30;99.90
1594;DHT22;790;47.000;16.084;2023-03-14T12:10:48;17.20;99.90
1594;DHT22;790;47.000;16.084;2023-03-14T12:13:18;17.20;99.90
1594;DHT22;790;47.000;16.084;2023-03-14T12:15:49;17.10;99.90
1594;DHT22;790;47.000;16.084;2023-03-14T12:18:20;17.10;99.90
1594;DHT22;790;47.000;16.084;2023-03-14T12:20:51;17.00;99.90
1594;DHT22;790;47.000;16.084;2023-03-14T12:23:36;16.90;99.90
1594;DHT22;790;47.000;16.084;2023-03-14T12:26:15;16.70;99.90
1594;DHT22;790;47.000;16.084;2023-03-14T12:28:49;16.60;99.90
1594;DHT22;790;47.000;16.084;2023-03-14T12:34:39;16.40;99.90
1594;DHT22;790;47.000;16.084;2023-03-14T12:37:29;16.30;99.90
1594;DHT22;790;47.000;16.084;2023-03-14T12:40:13;16.20;99.90
1594;DHT22;790;47.000;16.084;2023-03-14T12:42:57;16.20;99.90
1594;DHT22;790;47.000;16.084;2023-03-14T12:45:32;16.30;99.90
1594;DHT22;790;47.000;16.084;2023-03-14T12:48:09;16.30;99.90
1594;DHT22;790;47.000;16.084;2023-03-14T12:50:43;16.30;99.90
1594;DHT22;790;47.000;16.084;2023-03-14T12:53:41;16.30;99.90
1594;DHT22;790;47.000;16.084;2023-03-14T12:56:20;16.40;99.90
1594;DHT22;790;47.000;16.084;2023-03-14T12:58:59;16.40;99.90
1594;DHT22;790;47.000;16.084;2023-03-14T13:01:35;16.50;99.90
1594;DHT22;790;47.000;16.084;2023-03-14T13:04:07;16.60;99.90
1594;DHT22;790;47.000;16.084;2023-03-14T13:06:51;16.50;99.90
1594;DHT22;790;47.000;16.084;2023-03-14T13:09:51;16.50;99.90
1594;DHT22;790;47.000;16.084;2023-03-14T13:12:26;16.40;99.90
1594;DHT22;790;47.000;16.084;2023-03-14T13:15:00;16.50;99.90
1594;DHT22;790;47.000;16.084;2023-03-14T13:17:36;16.50;99.90
1594;DHT22;790;47.000;16.084;2023-03-14T13:20:16;16.50;99.90
1594;DHT22;790;47.000;16.084;2023-03-14T13:22:52;16.40;99.90
1594;DHT22;790;47.000;16.084;2023-03-14T13:25:35;16.30;99.10
1594;DHT22;790;47.000;16.084;2023-03-14T13:28:10;16.30;99.10
1594;DHT22;790;47.000;16.084;2023-03-14T13:30:54;16.30;99.30
1594;DHT22;790;47.000;16.084;2023-03-14T13:33:35;16.20;99.30
1594;DHT22;790;47.000;16.084;2023-03-14T13:36:22;16.30;99.80
1594;DHT22;790;47.000;16.084;2023-03-14T13:38:56;16.20;99.40
1594;DHT22;790;47.000;16.084;2023-03-14T13:41:29;16.30;99.80
1594;DHT22;790;47.000;16.084;2023-03-14T13:44:30;16.30;99.50
1594;DHT22;790;47.000;16.084;2023-03-14T13:47:27;16.30;99.80
1594;DHT22;790;47.000;16.084;2023-03-14T13:50:16;16.30;99.70
1594;DHT22;790;47.000;16.084;2023-03-14T13:52:45;16.30;99.70
1594;DHT22;790;47.000;16.084;2023-03-14T13:55:16;16.30;99.80
1594;DHT22;790;47.000;16.084;2023-03-14T13:57:46;16.40;99.90
1594;DHT22;790;47.000;16.084;2023-03-14T14:00:19;16.40;99.60
1594;DHT22;790;47.000;16.084;2023-03-14T14:02:48;16.40;99.90
1594;DHT22;790;47.000;16.084;2023-03-14T14:05:22;16.50;99.80
1594;DHT22;790;47.000;16.084;2023-03-14T14:07:55;16.40;99.50
1594;DHT22;790;47.000;16.084;2023-03-14T14:10:25;16.30;99.90
1594;DHT22;790;47.000;16.084;2023-03-14T14:13:02;16.30;99.70
1594;DHT22;790;47.000;16.084;2023-03-14T14:15:44;16.30;99.90
1594;DHT22;790;47.000;16.084;2023-03-14T14:18:24;16.30;99.80
1594;DHT22;790;47.000;16.084;2023-03-14T14:20:58;16.40;99.60
1594;DHT22;790;47.000;16.084;2023-03-14T14:23:31;16.40;99.70
1594;DHT22;790;47.000;16.084;2023-03-14T14:26:14;16.40;99.00
1594;DHT22;790;47.000;16.084;2023-03-14T14:28:58;16.40;99.30
1594;DHT22;790;47.000;16.084;2023-03-14T14:31:37;16.40;99.10
1594;DHT22;790;47.000;16.084;2023-03-14T14:34:19;16.40;98.70
1594;DHT22;790;47.000;16.084;2023-03-14T14:36:55;16.40;98.50
1594;DHT22;790;47.000;16.084;2023-03-14T14:39:45;16.30;98.50
1594;DHT22;790;47.000;16.084;2023-03-14T14:42:16;16.30;99.30
1594;DHT22;790;47.000;16.084;2023-03-14T14:45:02;16.30;98.90
1594;DHT22;790;47.000;16.084;2023-03-14T14:47:53;16.30;99.30
1594;DHT22;790;47.000;16.084;2023-03-14T14:50:28;16.30;99.20
1594;DHT22;790;47.000;16.084;2023-03-14T14:53:28;16.30;99.40
1594;DHT22;790;47.000;16.084;2023-03-14T14:56:27;16.30;99.90
1594;DHT22;790;47.000;16.084;2023-03-14T14:59:21;16.30;99.90
1594;DHT22;790;47.000;16.084;2023-03-14T15:02:35;16.40;99.90
1594;DHT22;790;47.000;16.084;2023-03-14T15:05:30;16.40;99.90
1594;DHT22;790;47.000;16.084;2023-03-14T15:08:09;16.30;99.90
1594;DHT22;790;47.000;16.084;2023-03-14T15:10:42;16.30;99.90
1594;DHT22;790;47.000;16.084;2023-03-14T15:13:14;16.40;99.90
1594;DHT22;790;47.000;16.084;2023-03-14T15:16:12;16.20;99.90
1594;DHT22;790;47.000;16.084;2023-03-14T15:19:09;16.20;99.90
1594;DHT22;790;47.000;16.084;2023-03-14T15:21:38;16.20;99.90
1594;DHT22;790;47.000;16.084;2023-03-14T15:24:13;16.10;99.90
1594;DHT22;790;47.000;16.084;2023-03-14T15:26:43;16.10;99.90
1594;DHT22;790;47.000;16.084;2023-03-14T15:29:12;16.10;99.90
1594;DHT22;790;47.000;16.084;2023-03-14T15:31:41;16.10;99.90
1594;DHT22;790;47.000;16.084;2023-03-14T15:34:10;16.00;99.90
1594;DHT22;790;47.000;16.084;2023-03-14T15:36:38;16.00;99.90
1594;DHT22;790;47.000;16.084;2023-03-14T15:39:06;16.10;99.90
1594;DHT22;790;47.000;16.084;2023-03-14T15:41:42;16.10;99.90
1594;DHT22;790;47.000;16.084;2023-03-14T15:44:15;16.10;99.90
1594;DHT22;790;47.000;16.084;2023-03-14T15:46:43;16.00;99.90
1594;DHT22;790;47.000;16.084;2023-03-14T15:49:11;15.90;99.90
1594;DHT22;790;47.000;16.084;2023-03-14T15:51:38;15.90;99.90
1594;DHT22;790;47.000;16.084;2023-03-14T15:54:08;15.80;99.90
1594;DHT22;790;47.000;16.084;2023-03-14T15:56:39;15.80;99.90
1594;DHT22;790;47.000;16.084;2023-03-14T15:59:08;15.80;99.90
1594;DHT22;790;47.000;16.084;2023-03-14T16:01:47;15.80;99.90
1594;DHT22;790;47.000;16.084;2023-03-14T16:04:18;15.70;99.90
1594;DHT22;790;47.000;16.084;2023-03-14T16:07:00;15.70;99.90
1594;DHT22;790;47.000;16.084;2023-03-14T16:09:39;15.70;99.90
1594;DHT22;790;47.000;16.084;2023-03-14T16:12:20;15.70;99.90
1594;DHT22;790;47.000;16.084;2023-03-14T16:14:52;15.60;99.90
1594;DHT22;790;47.000;16.084;2023-03-14T16:17:34;15.60;99.90
1594;DHT22;790;47.000;16.084;2023-03-14T16:23:01;15.60;99.90
1594;DHT22;790;47.000;16.084;2023-03-14T16:25:47;15.60;99.90
1594;DHT22;790;47.000;16.084;2023-03-14T16:28:24;15.60;99.90
1594;DHT22;790;47.000;16.084;2023-03-14T16:34:41;15.60;99.90
1594;DHT22;790;47.000;16.084;2023-03-14T16:37:09;15.50;99.90
1594;DHT22;790;47.000;16.084;2023-03-14T16:39:36;15.50;99.90
1594;DHT22;790;47.000;16.084;2023-03-14T16:42:04;15.50;99.90
1594;DHT22;790;47.000;16.084;2023-03-14T16:44:32;15.50;99.90
1594;DHT22;790;47.000;16.084;2023-03-14T16:47:00;15.50;99.90
1594;DHT22;790;47.000;16.084;2023-03-14T16:49:27;15.40;99.90
1594;DHT22;790;47.000;16.084;2023-03-14T16:51:54;15.30;99.90
1594;DHT22;790;47.000;16.084;2023-03-14T16:54:22;15.30;99.90
1594;DHT22;790;47.000;16.084;2023-03-14T16:56:50;15.30;99.90
1594;DHT22;790;47.000;16.084;2023-03-14T16:59:18;15.30;99.90
1594;DHT22;790;47.000;16.084;2023-03-14T17:01:49;15.20;99.90
1594;DHT22;790;47.000;16.084;2023-03-14T17:04:16;15.10;99.90
1594;DHT22;790;47.000;16.084;2023-03-14T17:06:44;15.10;99.90
1594;DHT22;790;47.000;16.084;2023-03-14T17:09:12;15.00;99.90
1594;DHT22;790;47.000;16.084;2023-03-14T17:11:39;15.00;99.90
1594;DHT22;790;47.000;16.084;2023-03-14T17:14:07;14.90;99.90
1594;DHT22;790;47.000;16.084;2023-03-14T17:16:34;14.80;99.90
1594;DHT22;790;47.000;16.084;2023-03-14T17:19:07;14.60;99.90